首页
METAR-TAF:

METAR-TAF

机场 :

钦戈兹伊机场

太特, 莫桑比克

纬度: 16-06S, 经度: 033-38E, 海拔: 160米

当前天气观测

该预报发布于42分钟前的15:00 UTC
风速4节,风向西转西南
温度 30°C
湿度 38%
气压 1013 hPa
能见度10公里或以上
少量云层高于2000英尺

METAR: FQTT 251500Z 24004KT 9999 FEW020 30/14 Q1013

时间: 17:42 (15:42 UTC)

预报

该预报发布于5小时和42分钟前的10:00 UTC
预报有效从25日的 12点(UTC)到 26日的 12点(UTC)
风速10节,风向
能见度10公里或以上
1500米以下无云,无积雨云
成为
从 25日的 20点(UTC)到 25日的 22点(UTC)
风速2节,风向多变
成为
从 26日的 06点(UTC)到 26日的 08点(UTC)
风速7节,风向北转东北
能见度10公里或以上
少量云层高于2000英尺

TAF: FQTT 251000Z 2512/2612 10010KT CAVOK TX32/2513Z TN20/2603Z BECMG 2520/2522 VRB02KT BECMG 2606/2608 03007KT 9999 FEW020

超过4000个机场的气象观测和天气预报(METAR&TAF报告)。

可查询的气象台以黄色和红色小点在地图上表示。

将鼠标移到小点上方,可查看气象台名称。

然后点击查看天气观测和预报。

如需切换地图:点击带黑十字的绿色按钮放大地图;点击带横线的绿色按钮缩小地图;或者点击绿色箭头查看邻近地区的地图。


METAR-TAF: